sensor_id;sensor_type;location;lat;lon;timestamp;noise_LAeq;noise_LA_min;noise_LA_max;noise_LA01;noise_LA95
40465;Laerm;30489;48.982;8.394;2024-02-21T00:01:45;40.33;38.81;41.75;;
40465;Laerm;30489;48.982;8.394;2024-02-21T00:03:56;40.31;38.67;41.75;;
40465;Laerm;30489;48.982;8.394;2024-02-21T00:06:06;40.33;38.95;41.75;;
40465;Laerm;30489;48.982;8.394;2024-02-21T00:08:16;40.34;38.81;41.89;;
40465;Laerm;30489;48.982;8.394;2024-02-21T00:10:26;40.34;38.52;41.82;;
40465;Laerm;30489;48.982;8.394;2024-02-21T00:12:36;40.34;38.52;41.68;;
40465;Laerm;30489;48.982;8.394;2024-02-21T00:14:47;40.38;38.81;41.75;;
40465;Laerm;30489;48.982;8.394;2024-02-21T00:16:57;40.39;38.67;41.75;;
40465;Laerm;30489;48.982;8.394;2024-02-21T00:19:07;40.38;38.67;41.89;;
40465;Laerm;30489;48.982;8.394;2024-02-21T00:21:17;40.38;38.74;41.75;;
40465;Laerm;30489;48.982;8.394;2024-02-21T00:23:28;40.39;38.81;41.82;;
40465;Laerm;30489;48.982;8.394;2024-02-21T00:25:38;40.41;38.52;41.82;;
40465;Laerm;30489;48.982;8.394;2024-02-21T00:27:49;40.42;38.81;41.68;;
40465;Laerm;30489;48.982;8.394;2024-02-21T00:29:59;40.43;38.95;41.68;;
40465;Laerm;30489;48.982;8.394;2024-02-21T00:32:09;40.44;38.52;41.68;;
40465;Laerm;30489;48.982;8.394;2024-02-21T00:34:19;40.45;38.37;41.75;;
40465;Laerm;30489;48.982;8.394;2024-02-21T00:36:29;40.46;38.95;41.89;;
40465;Laerm;30489;48.982;8.394;2024-02-21T00:38:40;40.44;38.81;41.82;;
40465;Laerm;30489;48.982;8.394;2024-02-21T00:40:50;40.46;38.81;41.75;;
40465;Laerm;30489;48.982;8.394;2024-02-21T00:43:00;40.46;38.21;41.68;;
40465;Laerm;30489;48.982;8.394;2024-02-21T00:45:10;40.45;38.87;41.82;;
40465;Laerm;30489;48.982;8.394;2024-02-21T00:47:21;40.49;38.67;41.68;;
40465;Laerm;30489;48.982;8.394;2024-02-21T00:49:31;40.50;38.95;42.09;;
40465;Laerm;30489;48.982;8.394;2024-02-21T00:51:41;40.52;38.52;41.82;;
40465;Laerm;30489;48.982;8.394;2024-02-21T00:53:51;40.51;38.67;41.75;;
40465;Laerm;30489;48.982;8.394;2024-02-21T00:56:02;40.51;38.81;41.89;;
40465;Laerm;30489;48.982;8.394;2024-02-21T00:58:12;40.52;38.81;42.03;;
40465;Laerm;30489;48.982;8.394;2024-02-21T01:00:22;40.51;39.08;41.82;;
40465;Laerm;30489;48.982;8.394;2024-02-21T01:02:32;40.52;38.81;41.75;;
40465;Laerm;30489;48.982;8.394;2024-02-21T01:04:43;40.51;38.95;41.89;;
40465;Laerm;30489;48.982;8.394;2024-02-21T01:06:53;40.46;38.81;41.61;;
40465;Laerm;30489;48.982;8.394;2024-02-21T01:09:03;40.39;38.37;41.82;;
40465;Laerm;30489;48.982;8.394;2024-02-21T01:11:14;40.27;38.05;41.68;;
40465;Laerm;30489;48.982;8.394;2024-02-21T01:13:24;40.25;38.37;41.46;;
40465;Laerm;30489;48.982;8.394;2024-02-21T01:15:34;40.19;38.37;41.53;;
40465;Laerm;30489;48.982;8.394;2024-02-21T01:17:45;40.12;38.21;41.55;;
40465;Laerm;30489;48.982;8.394;2024-02-21T01:19:55;40.06;38.21;41.30;;
40465;Laerm;30489;48.982;8.394;2024-02-21T01:22:05;39.98;38.21;41.38;;
40465;Laerm;30489;48.982;8.394;2024-02-21T01:24:16;39.94;38.21;41.53;;
40465;Laerm;30489;48.982;8.394;2024-02-21T01:26:26;39.91;38.05;41.46;;
40465;Laerm;30489;48.982;8.394;2024-02-21T01:28:36;39.91;38.05;41.68;;
40465;Laerm;30489;48.982;8.394;2024-02-21T01:30:47;39.86;38.05;41.38;;
40465;Laerm;30489;48.982;8.394;2024-02-21T01:32:57;39.77;37.88;41.30;;
40465;Laerm;30489;48.982;8.394;2024-02-21T01:35:07;39.75;37.70;41.22;;
40465;Laerm;30489;48.982;8.394;2024-02-21T01:37:18;39.71;37.52;41.30;;
40465;Laerm;30489;48.982;8.394;2024-02-21T01:39:28;39.71;37.88;41.38;;
40465;Laerm;30489;48.982;8.394;2024-02-21T01:41:38;39.72;37.70;41.30;;
40465;Laerm;30489;48.982;8.394;2024-02-21T01:43:48;39.70;37.88;41.30;;
40465;Laerm;30489;48.982;8.394;2024-02-21T01:45:59;39.70;37.88;41.14;;
40465;Laerm;30489;48.982;8.394;2024-02-21T01:48:09;39.70;38.05;41.22;;
40465;Laerm;30489;48.982;8.394;2024-02-21T01:50:19;39.69;37.88;41.06;;
40465;Laerm;30489;48.982;8.394;2024-02-21T01:52:32;39.72;37.88;41.46;;
40465;Laerm;30489;48.982;8.394;2024-02-21T01:54:43;39.73;37.88;41.30;;
40465;Laerm;30489;48.982;8.394;2024-02-21T01:56:54;39.71;37.52;41.30;;
40465;Laerm;30489;48.982;8.394;2024-02-21T01:59:05;39.70;37.53;41.75;;
40465;Laerm;30489;48.982;8.394;2024-02-21T02:01:15;39.71;37.87;41.14;;
40465;Laerm;30489;48.982;8.394;2024-02-21T02:03:26;39.71;37.70;41.22;;
40465;Laerm;30489;48.982;8.394;2024-02-21T02:05:36;39.68;37.70;41.61;;
40465;Laerm;30489;48.982;8.394;2024-02-21T02:07:47;39.71;37.88;41.14;;
40465;Laerm;30489;48.982;8.394;2024-02-21T02:09:57;39.73;37.88;41.30;;
40465;Laerm;30489;48.982;8.394;2024-02-21T02:12:07;39.72;38.05;41.46;;
40465;Laerm;30489;48.982;8.394;2024-02-21T02:14:17;39.74;37.88;41.46;;
40465;Laerm;30489;48.982;8.394;2024-02-21T02:16:28;39.73;37.88;41.38;;
40465;Laerm;30489;48.982;8.394;2024-02-21T02:18:38;39.74;37.52;41.22;;
40465;Laerm;30489;48.982;8.394;2024-02-21T02:20:48;39.72;37.87;41.22;;
40465;Laerm;30489;48.982;8.394;2024-02-21T02:22:59;39.74;38.02;41.46;;
40465;Laerm;30489;48.982;8.394;2024-02-21T02:25:09;39.72;37.88;41.30;;
40465;Laerm;30489;48.982;8.394;2024-02-21T02:27:20;39.71;37.70;41.30;;
40465;Laerm;30489;48.982;8.394;2024-02-21T02:29:31;39.71;37.88;41.22;;
40465;Laerm;30489;48.982;8.394;2024-02-21T02:31:42;39.73;38.05;41.38;;
40465;Laerm;30489;48.982;8.394;2024-02-21T02:33:52;39.72;37.88;41.30;;
40465;Laerm;30489;48.982;8.394;2024-02-21T02:36:02;39.72;37.88;41.46;;
40465;Laerm;30489;48.982;8.394;2024-02-21T02:38:12;39.69;37.88;41.30;;
40465;Laerm;30489;48.982;8.394;2024-02-21T02:40:23;39.70;37.87;41.46;;
40465;Laerm;30489;48.982;8.394;2024-02-21T02:42:33;39.72;37.70;41.14;;
40465;Laerm;30489;48.982;8.394;2024-02-21T02:44:43;39.66;37.88;41.22;;
40465;Laerm;30489;48.982;8.394;2024-02-21T02:46:54;39.63;37.70;41.14;;
40465;Laerm;30489;48.982;8.394;2024-02-21T02:49:04;39.70;38.05;41.06;;
40465;Laerm;30489;48.982;8.394;2024-02-21T02:51:14;39.72;38.02;41.38;;
40465;Laerm;30489;48.982;8.394;2024-02-21T02:53:24;39.75;37.88;41.22;;
40465;Laerm;30489;48.982;8.394;2024-02-21T02:55:35;39.75;37.88;41.30;;
40465;Laerm;30489;48.982;8.394;2024-02-21T02:57:45;39.73;37.52;41.22;;
40465;Laerm;30489;48.982;8.394;2024-02-21T02:59:55;39.71;37.88;41.38;;
40465;Laerm;30489;48.982;8.394;2024-02-21T03:02:06;39.71;37.52;41.22;;
40465;Laerm;30489;48.982;8.394;2024-02-21T03:04:16;39.70;37.88;41.22;;
40465;Laerm;30489;48.982;8.394;2024-02-21T03:06:26;39.69;37.88;41.38;;
40465;Laerm;30489;48.982;8.394;2024-02-21T03:08:36;39.65;37.32;41.53;;
40465;Laerm;30489;48.982;8.394;2024-02-21T03:10:47;39.68;38.05;41.61;;
40465;Laerm;30489;48.982;8.394;2024-02-21T03:12:57;39.67;37.88;41.14;;
40465;Laerm;30489;48.982;8.394;2024-02-21T03:15:07;39.69;37.52;41.38;;
40465;Laerm;30489;48.982;8.394;2024-02-21T03:17:18;39.70;37.70;41.30;;
40465;Laerm;30489;48.982;8.394;2024-02-21T03:19:28;39.73;37.88;41.14;;
40465;Laerm;30489;48.982;8.394;2024-02-21T03:21:38;39.72;37.70;41.26;;
40465;Laerm;30489;48.982;8.394;2024-02-21T03:23:49;39.73;37.70;41.53;;
40465;Laerm;30489;48.982;8.394;2024-02-21T03:25:59;39.75;38.05;41.68;;
40465;Laerm;30489;48.982;8.394;2024-02-21T03:28:09;39.76;37.88;41.38;;
40465;Laerm;30489;48.982;8.394;2024-02-21T03:30:19;39.75;38.05;41.14;;
40465;Laerm;30489;48.982;8.394;2024-02-21T03:32:30;39.75;37.88;41.38;;
40465;Laerm;30489;48.982;8.394;2024-02-21T03:34:40;39.73;37.70;41.46;;
40465;Laerm;30489;48.982;8.394;2024-02-21T03:36:51;39.74;37.70;41.30;;
40465;Laerm;30489;48.982;8.394;2024-02-21T03:39:01;39.75;37.88;41.22;;
40465;Laerm;30489;48.982;8.394;2024-02-21T03:41:11;39.75;37.70;41.22;;
40465;Laerm;30489;48.982;8.394;2024-02-21T03:43:22;39.73;37.88;41.38;;
40465;Laerm;30489;48.982;8.394;2024-02-21T03:45:32;39.74;37.52;41.14;;
40465;Laerm;30489;48.982;8.394;2024-02-21T03:47:42;39.77;38.05;41.30;;
40465;Laerm;30489;48.982;8.394;2024-02-21T03:49:52;39.76;38.05;41.22;;
40465;Laerm;30489;48.982;8.394;2024-02-21T03:52:03;39.76;37.88;41.46;;
40465;Laerm;30489;48.982;8.394;2024-02-21T03:54:13;39.75;38.05;41.30;;
40465;Laerm;30489;48.982;8.394;2024-02-21T03:56:23;39.77;37.88;41.22;;
40465;Laerm;30489;48.982;8.394;2024-02-21T03:58:33;39.76;38.05;41.14;;
40465;Laerm;30489;48.982;8.394;2024-02-21T04:00:43;39.75;37.88;41.22;;
40465;Laerm;30489;48.982;8.394;2024-02-21T04:02:54;39.74;37.70;41.30;;
40465;Laerm;30489;48.982;8.394;2024-02-21T04:05:05;39.77;38.05;41.55;;
40465;Laerm;30489;48.982;8.394;2024-02-21T04:07:16;39.76;37.52;41.14;;
40465;Laerm;30489;48.982;8.394;2024-02-21T04:09:26;39.77;37.87;41.30;;
40465;Laerm;30489;48.982;8.394;2024-02-21T04:11:36;39.77;37.70;41.22;;
40465;Laerm;30489;48.982;8.394;2024-02-21T04:13:47;39.76;37.70;41.30;;
40465;Laerm;30489;48.982;8.394;2024-02-21T04:15:59;39.75;38.05;41.22;;
40465;Laerm;30489;48.982;8.394;2024-02-21T04:18:11;39.74;37.70;41.22;;
40465;Laerm;30489;48.982;8.394;2024-02-21T04:20:21;39.75;37.88;41.30;;
40465;Laerm;30489;48.982;8.394;2024-02-21T04:22:31;39.75;37.52;41.22;;
40465;Laerm;30489;48.982;8.394;2024-02-21T04:24:42;39.74;37.70;41.46;;
40465;Laerm;30489;48.982;8.394;2024-02-21T04:26:53;39.74;38.05;41.30;;
40465;Laerm;30489;48.982;8.394;2024-02-21T04:29:03;39.77;37.88;41.46;;
40465;Laerm;30489;48.982;8.394;2024-02-21T04:31:13;39.74;37.88;41.30;;
40465;Laerm;30489;48.982;8.394;2024-02-21T04:33:23;39.77;38.02;41.22;;
40465;Laerm;30489;48.982;8.394;2024-02-21T04:35:35;39.77;38.05;41.75;;
40465;Laerm;30489;48.982;8.394;2024-02-21T04:37:45;39.75;38.21;41.30;;
40465;Laerm;30489;48.982;8.394;2024-02-21T04:39:56;39.70;37.88;41.30;;
40465;Laerm;30489;48.982;8.394;2024-02-21T04:42:06;39.71;37.88;41.38;;
40465;Laerm;30489;48.982;8.394;2024-02-21T04:44:16;39.71;38.05;41.38;;
40465;Laerm;30489;48.982;8.394;2024-02-21T04:46:26;39.70;37.52;41.30;;
40465;Laerm;30489;48.982;8.394;2024-02-21T04:48:37;39.67;37.88;41.38;;
40465;Laerm;30489;48.982;8.394;2024-02-21T04:50:47;39.68;37.88;41.46;;
40465;Laerm;30489;48.982;8.394;2024-02-21T04:52:57;39.71;37.88;41.30;;
40465;Laerm;30489;48.982;8.394;2024-02-21T04:55:07;39.70;37.88;41.22;;
40465;Laerm;30489;48.982;8.394;2024-02-21T04:57:18;39.68;37.70;41.14;;
40465;Laerm;30489;48.982;8.394;2024-02-21T04:59:28;39.70;37.88;41.22;;
40465;Laerm;30489;48.982;8.394;2024-02-21T05:01:39;39.71;37.88;41.22;;
40465;Laerm;30489;48.982;8.394;2024-02-21T05:03:49;39.69;37.88;41.14;;
40465;Laerm;30489;48.982;8.394;2024-02-21T05:05:59;39.67;37.88;41.22;;
40465;Laerm;30489;48.982;8.394;2024-02-21T05:08:10;39.69;37.70;41.48;;
40465;Laerm;30489;48.982;8.394;2024-02-21T05:10:21;39.68;37.88;41.14;;
40465;Laerm;30489;48.982;8.394;2024-02-21T05:12:31;39.67;37.70;41.46;;
40465;Laerm;30489;48.982;8.394;2024-02-21T05:14:41;39.66;37.88;41.26;;
40465;Laerm;30489;48.982;8.394;2024-02-21T05:16:51;39.65;37.88;41.38;;
40465;Laerm;30489;48.982;8.394;2024-02-21T05:19:01;39.63;38.05;41.14;;
40465;Laerm;30489;48.982;8.394;2024-02-21T05:21:13;39.63;37.70;41.46;;
40465;Laerm;30489;48.982;8.394;2024-02-21T05:23:24;39.63;37.88;41.06;;
40465;Laerm;30489;48.982;8.394;2024-02-21T05:25:34;39.63;37.52;41.22;;
40465;Laerm;30489;48.982;8.394;2024-02-21T05:27:44;39.64;37.52;41.38;;
40465;Laerm;30489;48.982;8.394;2024-02-21T05:29:55;39.64;37.70;41.30;;
40465;Laerm;30489;48.982;8.394;2024-02-21T05:32:06;39.60;37.70;41.22;;
40465;Laerm;30489;48.982;8.394;2024-02-21T05:34:16;39.64;37.70;41.06;;
40465;Laerm;30489;48.982;8.394;2024-02-21T05:36:27;39.67;37.88;41.06;;
40465;Laerm;30489;48.982;8.394;2024-02-21T05:38:38;39.67;37.70;41.30;;
40465;Laerm;30489;48.982;8.394;2024-02-21T05:40:48;39.65;37.70;41.14;;
40465;Laerm;30489;48.982;8.394;2024-02-21T05:42:58;39.65;37.88;41.22;;
40465;Laerm;30489;48.982;8.394;2024-02-21T05:45:09;39.65;37.88;41.46;;
40465;Laerm;30489;48.982;8.394;2024-02-21T05:47:19;39.64;37.88;41.14;;
40465;Laerm;30489;48.982;8.394;2024-02-21T05:49:30;39.64;37.88;41.14;;
40465;Laerm;30489;48.982;8.394;2024-02-21T05:51:40;39.63;37.52;41.30;;
40465;Laerm;30489;48.982;8.394;2024-02-21T05:53:51;39.63;37.52;41.22;;
40465;Laerm;30489;48.982;8.394;2024-02-21T05:56:01;39.64;37.70;41.22;;
40465;Laerm;30489;48.982;8.394;2024-02-21T05:58:11;39.62;37.52;41.22;;
40465;Laerm;30489;48.982;8.394;2024-02-21T06:00:23;39.61;37.32;41.14;;
40465;Laerm;30489;48.982;8.394;2024-02-21T06:02:33;39.62;37.88;41.38;;
40465;Laerm;30489;48.982;8.394;2024-02-21T06:04:44;39.59;37.52;41.30;;
40465;Laerm;30489;48.982;8.394;2024-02-21T06:06:56;39.58;37.70;41.22;;
40465;Laerm;30489;48.982;8.394;2024-02-21T06:09:06;39.57;37.70;40.98;;
40465;Laerm;30489;48.982;8.394;2024-02-21T06:11:16;39.57;37.52;41.14;;
40465;Laerm;30489;48.982;8.394;2024-02-21T06:13:27;39.55;37.32;41.53;;
40465;Laerm;30489;48.982;8.394;2024-02-21T06:15:37;39.57;37.32;41.22;;
40465;Laerm;30489;48.982;8.394;2024-02-21T06:17:47;39.56;37.70;41.22;;
40465;Laerm;30489;48.982;8.394;2024-02-21T06:19:57;39.57;37.52;41.22;;
40465;Laerm;30489;48.982;8.394;2024-02-21T06:22:08;39.55;37.70;40.98;;
40465;Laerm;30489;48.982;8.394;2024-02-21T06:24:18;39.55;37.52;41.30;;
40465;Laerm;30489;48.982;8.394;2024-02-21T06:26:28;39.58;37.70;41.14;;
40465;Laerm;30489;48.982;8.394;2024-02-21T06:28:38;39.57;37.70;41.22;;
40465;Laerm;30489;48.982;8.394;2024-02-21T06:30:48;39.55;37.70;41.30;;
40465;Laerm;30489;48.982;8.394;2024-02-21T06:33:06;39.56;37.70;41.06;;
40465;Laerm;30489;48.982;8.394;2024-02-21T06:35:19;39.56;37.70;41.30;;
40465;Laerm;30489;48.982;8.394;2024-02-21T06:37:29;39.55;37.52;41.14;;
40465;Laerm;30489;48.982;8.394;2024-02-21T06:39:40;39.55;37.70;41.06;;
40465;Laerm;30489;48.982;8.394;2024-02-21T06:41:50;39.54;37.52;41.14;;
40465;Laerm;30489;48.982;8.394;2024-02-21T06:44:01;39.52;37.52;41.14;;
40465;Laerm;30489;48.982;8.394;2024-02-21T06:46:11;39.55;37.70;41.22;;
40465;Laerm;30489;48.982;8.394;2024-02-21T06:48:22;39.54;37.52;41.14;;
40465;Laerm;30489;48.982;8.394;2024-02-21T06:50:32;39.53;37.88;41.14;;
40465;Laerm;30489;48.982;8.394;2024-02-21T06:52:42;39.52;37.32;41.06;;
40465;Laerm;30489;48.982;8.394;2024-02-21T06:54:53;39.50;37.52;41.14;;
40465;Laerm;30489;48.982;8.394;2024-02-21T06:57:03;39.48;37.12;41.30;;
40465;Laerm;30489;48.982;8.394;2024-02-21T06:59:13;39.48;37.70;41.14;;
40465;Laerm;30489;48.982;8.394;2024-02-21T07:01:25;39.50;37.52;41.14;;
40465;Laerm;30489;48.982;8.394;2024-02-21T07:03:35;39.49;37.32;41.22;;
40465;Laerm;30489;48.982;8.394;2024-02-21T07:05:46;39.49;37.52;41.46;;
40465;Laerm;30489;48.982;8.394;2024-02-21T07:07:56;39.49;37.12;53.03;;
40465;Laerm;30489;48.982;8.394;2024-02-21T07:10:06;39.46;37.32;41.06;;
40465;Laerm;30489;48.982;8.394;2024-02-21T07:12:17;39.48;37.52;41.14;;
40465;Laerm;30489;48.982;8.394;2024-02-21T07:14:28;39.49;37.70;40.89;;
40465;Laerm;30489;48.982;8.394;2024-02-21T07:16:39;39.50;36.45;41.22;;
40465;Laerm;30489;48.982;8.394;2024-02-21T07:18:49;39.52;37.52;41.22;;
40465;Laerm;30489;48.982;8.394;2024-02-21T07:20:59;39.51;37.52;41.14;;
40465;Laerm;30489;48.982;8.394;2024-02-21T07:23:09;39.50;37.70;41.14;;
40465;Laerm;30489;48.982;8.394;2024-02-21T07:25:20;39.48;37.52;41.53;;
40465;Laerm;30489;48.982;8.394;2024-02-21T07:27:30;39.53;37.52;41.14;;
40465;Laerm;30489;48.982;8.394;2024-02-21T07:29:42;39.58;37.70;41.30;;
40465;Laerm;30489;48.982;8.394;2024-02-21T07:31:52;39.59;37.70;41.22;;
40465;Laerm;30489;48.982;8.394;2024-02-21T07:34:03;39.59;37.70;41.22;;
40465;Laerm;30489;48.982;8.394;2024-02-21T07:36:14;39.57;37.70;41.14;;
40465;Laerm;30489;48.982;8.394;2024-02-21T07:38:25;39.61;37.70;41.33;;
40465;Laerm;30489;48.982;8.394;2024-02-21T07:40:35;39.61;37.70;41.38;;
40465;Laerm;30489;48.982;8.394;2024-02-21T07:42:45;39.63;37.88;42.03;;
40465;Laerm;30489;48.982;8.394;2024-02-21T07:44:55;39.59;37.70;41.38;;
40465;Laerm;30489;48.982;8.394;2024-02-21T07:47:06;39.61;37.32;41.06;;
40465;Laerm;30489;48.982;8.394;2024-02-21T07:49:17;39.61;37.52;41.19;;
40465;Laerm;30489;48.982;8.394;2024-02-21T07:51:27;39.62;37.88;41.53;;
40465;Laerm;30489;48.982;8.394;2024-02-21T07:53:40;39.62;37.52;41.22;;
40465;Laerm;30489;48.982;8.394;2024-02-21T07:55:54;39.65;37.52;41.38;;
40465;Laerm;30489;48.982;8.394;2024-02-21T07:58:04;39.63;37.88;41.30;;
40465;Laerm;30489;48.982;8.394;2024-02-21T08:00:15;39.67;37.88;41.22;;
40465;Laerm;30489;48.982;8.394;2024-02-21T08:02:29;39.68;37.88;41.14;;
40465;Laerm;30489;48.982;8.394;2024-02-21T08:04:39;39.70;37.52;41.38;;
40465;Laerm;30489;48.982;8.394;2024-02-21T08:06:53;39.67;37.52;41.30;;
40465;Laerm;30489;48.982;8.394;2024-02-21T08:09:04;39.69;37.70;41.53;;
40465;Laerm;30489;48.982;8.394;2024-02-21T08:11:14;39.71;37.87;41.14;;
40465;Laerm;30489;48.982;8.394;2024-02-21T08:13:24;39.70;37.88;41.26;;
40465;Laerm;30489;48.982;8.394;2024-02-21T08:15:35;39.74;38.05;41.38;;
40465;Laerm;30489;48.982;8.394;2024-02-21T08:17:45;39.77;37.88;41.22;;
40465;Laerm;30489;48.982;8.394;2024-02-21T08:19:55;39.75;37.88;41.46;;
40465;Laerm;30489;48.982;8.394;2024-02-21T08:22:06;39.75;38.05;41.14;;
40465;Laerm;30489;48.982;8.394;2024-02-21T08:24:16;39.79;38.05;41.22;;
40465;Laerm;30489;48.982;8.394;2024-02-21T08:26:27;39.85;38.05;41.68;;
40465;Laerm;30489;48.982;8.394;2024-02-21T08:28:40;39.81;38.05;41.38;;
40465;Laerm;30489;48.982;8.394;2024-02-21T08:30:50;39.77;38.05;41.30;;
40465;Laerm;30489;48.982;8.394;2024-02-21T08:33:00;39.77;38.02;41.38;;
40465;Laerm;30489;48.982;8.394;2024-02-21T08:35:10;39.78;38.05;41.61;;
40465;Laerm;30489;48.982;8.394;2024-02-21T08:37:22;39.80;37.70;41.38;;
40465;Laerm;30489;48.982;8.394;2024-02-21T08:39:32;39.78;37.32;41.30;;
40465;Laerm;30489;48.982;8.394;2024-02-21T08:41:42;39.78;37.32;41.53;;
40465;Laerm;30489;48.982;8.394;2024-02-21T08:43:53;39.76;37.88;41.22;;
40465;Laerm;30489;48.982;8.394;2024-02-21T08:46:04;39.82;37.88;41.22;;
40465;Laerm;30489;48.982;8.394;2024-02-21T08:48:15;39.82;37.88;41.53;;
40465;Laerm;30489;48.982;8.394;2024-02-21T08:50:25;39.82;37.52;41.19;;
40465;Laerm;30489;48.982;8.394;2024-02-21T08:52:35;39.85;38.05;41.53;;
40465;Laerm;30489;48.982;8.394;2024-02-21T08:54:45;39.81;37.70;41.38;;
40465;Laerm;30489;48.982;8.394;2024-02-21T08:56:56;39.83;37.70;41.75;;
40465;Laerm;30489;48.982;8.394;2024-02-21T08:59:06;39.83;38.05;41.22;;
40465;Laerm;30489;48.982;8.394;2024-02-21T09:01:16;39.79;37.52;41.41;;
40465;Laerm;30489;48.982;8.394;2024-02-21T09:03:27;39.86;37.88;41.53;;
40465;Laerm;30489;48.982;8.394;2024-02-21T09:05:37;39.86;38.21;41.46;;
40465;Laerm;30489;48.982;8.394;2024-02-21T09:07:47;39.84;38.21;41.22;;
40465;Laerm;30489;48.982;8.394;2024-02-21T09:09:58;39.84;37.88;41.53;;
40465;Laerm;30489;48.982;8.394;2024-02-21T09:12:08;39.83;37.70;41.38;;
40465;Laerm;30489;48.982;8.394;2024-02-21T09:14:18;39.86;38.21;41.53;;
40465;Laerm;30489;48.982;8.394;2024-02-21T09:16:32;39.83;37.88;41.22;;
40465;Laerm;30489;48.982;8.394;2024-02-21T09:18:42;39.90;38.21;41.38;;
40465;Laerm;30489;48.982;8.394;2024-02-21T09:20:52;39.95;38.21;41.41;;
40465;Laerm;30489;48.982;8.394;2024-02-21T09:23:02;39.94;37.88;41.38;;
40465;Laerm;30489;48.982;8.394;2024-02-21T09:25:13;39.94;37.70;41.30;;
40465;Laerm;30489;48.982;8.394;2024-02-21T09:27:23;39.95;38.05;41.30;;
40465;Laerm;30489;48.982;8.394;2024-02-21T09:29:33;39.99;38.05;41.38;;
40465;Laerm;30489;48.982;8.394;2024-02-21T09:31:43;40.05;38.37;41.53;;
40465;Laerm;30489;48.982;8.394;2024-02-21T09:33:54;40.08;38.37;41.61;;
40465;Laerm;30489;48.982;8.394;2024-02-21T09:36:04;40.11;38.37;41.38;;
40465;Laerm;30489;48.982;8.394;2024-02-21T09:38:15;40.14;38.37;41.89;;
40465;Laerm;30489;48.982;8.394;2024-02-21T09:40:25;40.28;38.52;41.68;;
40465;Laerm;30489;48.982;8.394;2024-02-21T09:42:39;40.32;38.67;41.89;;
40465;Laerm;30489;48.982;8.394;2024-02-21T09:44:50;40.31;38.52;41.82;;
40465;Laerm;30489;48.982;8.394;2024-02-21T09:47:04;40.35;38.52;41.82;;
40465;Laerm;30489;48.982;8.394;2024-02-21T09:49:21;40.36;38.52;41.82;;
40465;Laerm;30489;48.982;8.394;2024-02-21T09:51:35;40.39;38.81;41.75;;
40465;Laerm;30489;48.982;8.394;2024-02-21T09:53:46;40.40;38.67;41.68;;
40465;Laerm;30489;48.982;8.394;2024-02-21T09:55:57;40.40;38.67;41.89;;
40465;Laerm;30489;48.982;8.394;2024-02-21T09:58:08;40.40;38.52;41.75;;
40465;Laerm;30489;48.982;8.394;2024-02-21T10:00:19;40.40;38.60;41.75;;
40465;Laerm;30489;48.982;8.394;2024-02-21T10:02:31;40.40;38.52;41.75;;
40465;Laerm;30489;48.982;8.394;2024-02-21T10:04:41;40.39;38.52;41.75;;
40465;Laerm;30489;48.982;8.394;2024-02-21T10:06:53;40.37;38.37;41.68;;
40465;Laerm;30489;48.982;8.394;2024-02-21T10:09:03;40.36;38.81;41.75;;
40465;Laerm;30489;48.982;8.394;2024-02-21T10:11:21;40.48;38.67;41.96;;
40465;Laerm;30489;48.982;8.394;2024-02-21T10:13:32;40.55;39.08;41.82;;
40465;Laerm;30489;48.982;8.394;2024-02-21T10:15:42;40.55;38.81;42.03;;
40465;Laerm;30489;48.982;8.394;2024-02-21T10:17:59;40.62;39.21;41.96;;
40465;Laerm;30489;48.982;8.394;2024-02-21T10:20:10;40.63;38.52;41.89;;
40465;Laerm;30489;48.982;8.394;2024-02-21T10:22:20;40.67;39.08;42.09;;
40465;Laerm;30489;48.982;8.394;2024-02-21T10:24:31;40.64;39.21;41.89;;
40465;Laerm;30489;48.982;8.394;2024-02-21T10:26:42;40.66;39.21;41.89;;
40465;Laerm;30489;48.982;8.394;2024-02-21T10:28:52;40.66;39.08;41.96;;
40465;Laerm;30489;48.982;8.394;2024-02-21T10:31:04;40.68;39.08;42.03;;
40465;Laerm;30489;48.982;8.394;2024-02-21T10:33:15;40.73;39.08;42.09;;
40465;Laerm;30489;48.982;8.394;2024-02-21T10:35:29;40.71;39.08;42.09;;
40465;Laerm;30489;48.982;8.394;2024-02-21T10:37:40;40.70;39.21;42.03;;
40465;Laerm;30489;48.982;8.394;2024-02-21T10:39:50;40.75;39.23;42.03;;
40465;Laerm;30489;48.982;8.394;2024-02-21T10:42:02;40.76;39.08;42.22;;
40465;Laerm;30489;48.982;8.394;2024-02-21T10:44:13;40.73;38.95;42.29;;
40465;Laerm;30489;48.982;8.394;2024-02-21T10:46:26;40.74;39.34;42.16;;
40465;Laerm;30489;48.982;8.394;2024-02-21T10:48:42;40.78;39.21;42.09;;
40465;Laerm;30489;48.982;8.394;2024-02-21T10:55:46;40.85;39.21;42.29;;
40465;Laerm;30489;48.982;8.394;2024-02-21T10:58:00;40.83;39.34;42.22;;
40465;Laerm;30489;48.982;8.394;2024-02-21T11:00:11;40.87;39.46;42.09;;
40465;Laerm;30489;48.982;8.394;2024-02-21T11:02:25;40.93;39.34;42.22;;
40465;Laerm;30489;48.982;8.394;2024-02-21T11:04:36;40.97;39.70;42.29;;
40465;Laerm;30489;48.982;8.394;2024-02-21T11:06:47;40.98;39.34;42.29;;
40465;Laerm;30489;48.982;8.394;2024-02-21T11:08:59;40.95;39.34;42.22;;
40465;Laerm;30489;48.982;8.394;2024-02-21T11:11:11;41.03;39.70;42.35;;
40465;Laerm;30489;48.982;8.394;2024-02-21T11:13:34;41.03;39.21;42.29;;
40465;Laerm;30489;48.982;8.394;2024-02-21T11:15:45;41.04;39.58;42.47;;
40465;Laerm;30489;48.982;8.394;2024-02-21T11:17:57;41.06;39.70;42.22;;
40465;Laerm;30489;48.982;8.394;2024-02-21T11:20:14;41.14;39.92;42.47;;
40465;Laerm;30489;48.982;8.394;2024-02-21T11:22:24;41.18;39.81;42.47;;
40465;Laerm;30489;48.982;8.394;2024-02-21T11:24:39;41.19;39.46;42.35;;
40465;Laerm;30489;48.982;8.394;2024-02-21T11:26:49;41.24;39.81;42.71;;
40465;Laerm;30489;48.982;8.394;2024-02-21T11:29:02;41.29;39.70;42.41;;
40465;Laerm;30489;48.982;8.394;2024-02-21T11:31:15;41.35;40.03;42.53;;
40465;Laerm;30489;48.982;8.394;2024-02-21T11:33:26;41.42;40.13;42.76;;
40465;Laerm;30489;48.982;8.394;2024-02-21T11:35:36;41.42;40.03;42.76;;
40465;Laerm;30489;48.982;8.394;2024-02-21T11:37:46;41.40;40.13;42.65;;
40465;Laerm;30489;48.982;8.394;2024-02-21T11:39:57;41.39;40.03;42.65;;
40465;Laerm;30489;48.982;8.394;2024-02-21T11:42:08;41.40;40.13;42.59;;
40465;Laerm;30489;48.982;8.394;2024-02-21T11:44:18;41.50;39.92;42.82;;
40465;Laerm;30489;48.982;8.394;2024-02-21T11:46:29;41.52;40.13;42.76;;
40465;Laerm;30489;48.982;8.394;2024-02-21T11:48:39;41.55;40.33;42.71;;
40465;Laerm;30489;48.982;8.394;2024-02-21T11:50:53;41.50;40.13;42.71;;
40465;Laerm;30489;48.982;8.394;2024-02-21T11:53:05;41.51;40.13;42.76;;
40465;Laerm;30489;48.982;8.394;2024-02-21T11:55:15;41.47;39.58;42.47;;
40465;Laerm;30489;48.982;8.394;2024-02-21T11:57:25;41.43;40.03;42.65;;
40465;Laerm;30489;48.982;8.394;2024-02-21T11:59:35;41.44;40.23;42.65;;
40465;Laerm;30489;48.982;8.394;2024-02-21T12:01:46;41.49;40.13;42.59;;
40465;Laerm;30489;48.982;8.394;2024-02-21T12:03:56;41.50;40.23;42.53;;
40465;Laerm;30489;48.982;8.394;2024-02-21T12:06:07;41.49;40.03;42.64;;
40465;Laerm;30489;48.982;8.394;2024-02-21T12:08:17;41.50;40.03;42.59;;
40465;Laerm;30489;48.982;8.394;2024-02-21T12:10:27;41.53;40.23;42.59;;
40465;Laerm;30489;48.982;8.394;2024-02-21T12:12:38;41.53;40.23;42.65;;
40465;Laerm;30489;48.982;8.394;2024-02-21T12:14:54;41.58;40.13;42.59;;
40465;Laerm;30489;48.982;8.394;2024-02-21T12:17:05;41.56;40.23;42.76;;